Time;durP1;ratioP1;P1;durP2;ratioP2;P2;SDS_P1;SDS_P2;PMS_P1;PMS_P2;Temp;Humidity;BMP_temperature;BMP_pressure;BME280_temperature;BME280_humidity;BME280_pressure;Samples;Min_cycle;Max_cycle;Signal;HPM_P1;HPM_P2
2023/11/05 00:00:12;;;;;;;0.28;0.28;;;;;;;9.67;100.00;95362.59;4901551;29;20055;-58
2023/11/05 00:02:42;;;;;;;0.20;0.20;;;;;;;9.66;100.00;95354.88;4906677;29;20044;-58
2023/11/05 00:05:14;;;;;;;0.20;0.20;;;;;;;9.66;100.00;95354.88;4908262;29;20044;-58
2023/11/05 00:07:41;;;;;;;0.20;0.20;;;;;;;9.72;100.00;95340.97;4908370;29;20048;-60
2023/11/05 00:10:09;;;;;;;0.20;0.20;;;;;;;9.64;100.00;95335.75;4902754;29;20055;-60
2023/11/05 00:12:37;;;;;;;0.30;0.30;;;;;;;9.70;100.00;95334.41;4905243;29;20048;-58
2023/11/05 00:15:04;;;;;;;0.20;0.20;;;;;;;9.65;100.00;95332.72;4901379;29;20091;-58
2023/11/05 00:17:33;;;;;;;0.22;0.22;;;;;;;9.65;100.00;95332.72;4898824;29;20041;-58
2023/11/05 00:20:03;;;;;;;0.30;0.30;;;;;;;9.76;100.00;95321.59;4905631;29;20043;-58
2023/11/05 00:22:30;;;;;;;0.30;0.30;;;;;;;9.72;100.00;95322.25;4904144;29;20048;-58
2023/11/05 00:24:57;;;;;;;0.30;0.30;;;;;;;9.72;100.00;95322.25;4899651;29;20099;-58
2023/11/05 00:27:24;;;;;;;0.20;0.20;;;;;;;9.72;100.00;95322.25;4908101;29;20071;-58
2023/11/05 00:29:53;;;;;;;0.20;0.20;;;;;;;9.72;100.00;95322.25;4909941;29;20751;-58
2023/11/05 00:32:20;;;;;;;0.10;0.10;;;;;;;9.72;100.00;95322.25;4907592;29;20115;-58
2023/11/05 00:34:47;;;;;;;0.20;0.20;;;;;;;9.72;100.00;95322.25;4906736;29;20440;-58
2023/11/05 00:37:15;;;;;;;0.20;0.20;;;;;;;9.72;100.00;95322.25;4902210;29;20096;-58
2023/11/05 00:39:43;;;;;;;0.28;0.28;;;;;;;9.57;100.00;95308.75;4912555;29;20040;-58
2023/11/05 00:42:11;;;;;;;0.20;0.20;;;;;;;9.57;100.00;95308.75;4897836;29;20063;-57
2023/11/05 00:44:38;;;;;;;0.30;0.30;;;;;;;9.18;100.00;95302.84;4902675;29;20048;-58
2023/11/05 00:47:05;;;;;;;0.30;0.30;;;;;;;9.13;100.00;95293.16;4901645;29;20055;-58
2023/11/05 00:49:32;;;;;;;0.20;0.20;;;;;;;9.13;100.00;95293.16;4901991;29;20054;-58
2023/11/05 00:51:59;;;;;;;0.30;0.30;;;;;;;9.13;100.00;95293.16;4908541;29;20139;-58
2023/11/05 00:54:27;;;;;;;0.20;0.20;;;;;;;9.13;100.00;95293.16;4906881;29;20056;-58
2023/11/05 00:56:55;;;;;;;0.25;0.25;;;;;;;9.13;100.00;95293.16;4904506;29;20071;-58
2023/11/05 00:59:22;;;;;;;0.30;0.30;;;;;;;9.13;100.00;95293.16;4910111;29;20048;-58
2023/11/05 01:01:49;;;;;;;0.40;0.40;;;;;;;9.13;100.00;95293.16;4909341;29;20045;-60
2023/11/05 01:04:16;;;;;;;0.32;0.32;;;;;;;9.13;100.00;95293.16;4900460;29;20049;-59
2023/11/05 01:06:43;;;;;;;0.30;0.30;;;;;;;9.13;100.00;95293.16;4904738;29;20131;-59
2023/11/05 01:09:10;;;;;;;0.30;0.30;;;;;;;9.13;100.00;95293.16;4914246;29;20044;-58
2023/11/05 01:11:40;;;;;;;0.30;0.30;;;;;;;9.13;100.00;95293.16;4897108;29;20507;-58
2023/11/05 01:14:07;;;;;;;0.30;0.30;;;;;;;9.13;100.00;95293.16;4903442;29;20612;-58
2023/11/05 01:16:34;;;;;;;0.30;0.30;;;;;;;9.13;100.00;95293.16;4905146;29;20041;-58
2023/11/05 01:19:01;;;;;;;0.30;0.30;;;;;;;9.13;100.00;95293.16;4913579;29;20040;-58
2023/11/05 01:21:28;;;;;;;0.30;0.30;;;;;;;9.13;100.00;95293.16;4901600;29;20051;-58
2023/11/05 01:23:55;;;;;;;0.20;0.20;;;;;;;9.13;100.00;95293.16;4903033;29;20495;-58
2023/11/05 01:26:22;;;;;;;0.10;0.10;;;;;;;9.13;100.00;95293.16;4905073;29;20123;-58
2023/11/05 01:28:50;;;;;;;0.30;0.30;;;;;;;9.13;100.00;95293.16;4907551;29;20115;-59
2023/11/05 01:31:17;;;;;;;0.30;0.30;;;;;;;9.13;100.00;95293.16;4901571;29;20072;-58
2023/11/05 01:33:44;;;;;;;0.22;0.22;;;;;;;9.13;100.00;95293.16;4899868;29;20056;-58
2023/11/05 01:36:12;;;;;;;0.30;0.30;;;;;;;9.13;100.00;95293.16;4901935;29;20963;-58
2023/11/05 01:38:39;;;;;;;0.30;0.30;;;;;;;9.13;100.00;95293.16;4906277;29;20091;-58
2023/11/05 01:41:06;;;;;;;0.28;0.28;;;;;;;9.13;100.00;95293.16;4899835;29;20052;-59
2023/11/05 01:43:34;;;;;;;0.30;0.30;;;;;;;9.13;100.00;95293.16;4899113;29;20084;-58
2023/11/05 01:46:02;;;;;;;0.30;0.30;;;;;;;9.13;100.00;95293.16;4913179;29;20045;-58
2023/11/05 01:48:29;;;;;;;0.40;0.40;;;;;;;9.13;100.00;95293.16;4907350;29;20411;-58
2023/11/05 01:50:56;;;;;;;0.22;0.22;;;;;;;9.13;100.00;95293.16;4896554;29;20181;-58
2023/11/05 01:53:24;;;;;;;0.30;0.30;;;;;;;9.13;100.00;95293.16;4912607;29;20132;-58
2023/11/05 01:55:51;;;;;;;0.28;0.28;;;;;;;9.13;100.00;95293.16;4903286;29;20075;-58
2023/11/05 01:58:18;;;;;;;0.25;0.25;;;;;;;9.13;100.00;95293.16;4908407;29;20056;-58
2023/11/05 02:00:45;;;;;;;0.30;0.30;;;;;;;9.13;100.00;95293.16;4907012;29;20076;-58
2023/11/05 02:03:14;;;;;;;0.20;0.20;;;;;;;9.13;100.00;95293.16;4901557;29;20077;-58
2023/11/05 02:05:41;;;;;;;0.20;0.20;;;;;;;9.13;100.00;95293.16;4905045;29;20040;-59
2023/11/05 02:08:08;;;;;;;0.20;0.20;;;;;;;9.13;100.00;95293.16;4901305;29;20577;-58
2023/11/05 02:10:37;;;;;;;0.20;0.20;;;;;;;9.13;100.00;95293.16;4898592;29;20052;-58
2023/11/05 02:13:06;;;;;;;0.28;0.28;;;;;;;9.13;100.00;95293.16;4904039;29;20127;-58
2023/11/05 02:15:34;;;;;;;0.30;0.30;;;;;;;9.13;100.00;95293.16;4904946;29;20736;-58
2023/11/05 02:18:01;;;;;;;0.30;0.30;;;;;;;9.13;100.00;95293.16;4906928;29;20099;-58
2023/11/05 02:20:29;;;;;;;0.20;0.20;;;;;;;9.13;100.00;95293.16;4901023;29;20052;-59
2023/11/05 02:22:56;;;;;;;0.20;0.20;;;;;;;9.13;100.00;95293.16;4901094;29;20060;-58
2023/11/05 02:25:25;;;;;;;0.30;0.30;;;;;;;9.13;100.00;95293.16;4907403;29;20431;-58
2023/11/05 02:27:52;;;;;;;0.30;0.30;;;;;;;9.13;100.00;95293.16;4904421;29;20625;-58
2023/11/05 02:30:19;;;;;;;0.40;0.40;;;;;;;9.13;100.00;95293.16;4899454;29;20055;-58
2023/11/05 02:32:47;;;;;;;0.20;0.20;;;;;;;9.13;100.00;95293.16;4900553;29;20048;-58
2023/11/05 02:35:14;;;;;;;0.30;0.30;;;;;;;9.13;100.00;95293.16;4907595;29;20560;-58
2023/11/05 02:37:41;;;;;;;0.20;0.20;;;;;;;9.13;100.00;95293.16;4903724;29;20071;-58
2023/11/05 02:40:09;;;;;;;0.30;0.30;;;;;;;9.13;100.00;95293.16;4912070;29;20523;-58
2023/11/05 02:42:37;;;;;;;0.30;0.30;;;;;;;9.13;100.00;95293.16;4906451;29;20725;-58
2023/11/05 02:45:06;;;;;;;0.20;0.20;;;;;;;9.13;100.00;95293.16;4907105;29;20052;-58
2023/11/05 02:47:33;;;;;;;0.30;0.30;;;;;;;9.13;100.00;95293.16;4897759;29;20570;-58
2023/11/05 02:50:00;;;;;;;0.30;0.30;;;;;;;9.13;100.00;95293.16;4908417;29;20040;-58
2023/11/05 02:52:27;;;;;;;0.20;0.20;;;;;;;9.13;100.00;95293.16;4903101;29;21949;-58
2023/11/05 02:54:54;;;;;;;0.20;0.20;;;;;;;9.13;100.00;95293.16;4901857;29;20044;-59
2023/11/05 02:57:21;;;;;;;0.20;0.20;;;;;;;9.13;100.00;95293.16;4907701;29;20053;-58
2023/11/05 02:59:50;;;;;;;0.30;0.30;;;;;;;9.13;100.00;95293.16;4904607;29;20099;-58
2023/11/05 03:02:17;;;;;;;0.20;0.20;;;;;;;9.13;100.00;95293.16;4902452;29;20063;-58
2023/11/05 03:04:44;;;;;;;0.20;0.20;;;;;;;9.13;100.00;95293.16;4900250;29;20104;-58
2023/11/05 03:07:12;;;;;;;0.38;0.38;;;;;;;9.13;100.00;95293.16;4904615;29;20051;-58
2023/11/05 03:09:39;;;;;;;0.28;0.28;;;;;;;9.13;100.00;95293.16;4916126;29;20058;-60
2023/11/05 03:12:07;;;;;;;0.20;0.20;;;;;;;9.13;100.00;95293.16;4903621;29;20633;-60
2023/11/05 03:14:34;;;;;;;0.30;0.30;;;;;;;9.13;100.00;95293.16;4903657;29;20720;-60
2023/11/05 03:17:03;;;;;;;0.20;0.20;;;;;;;9.13;100.00;95293.16;4900071;29;20380;-60
2023/11/05 03:19:30;;;;;;;0.20;0.20;;;;;;;9.13;100.00;95293.16;4904324;29;20048;-59
2023/11/05 03:21:57;;;;;;;0.28;0.28;;;;;;;9.13;100.00;95293.16;4898953;29;20059;-60
2023/11/05 03:24:24;;;;;;;0.20;0.20;;;;;;;9.13;100.00;95293.16;4901674;29;20044;-58
2023/11/05 03:26:51;;;;;;;0.20;0.20;;;;;;;9.13;100.00;95293.16;4900280;29;20171;-59
2023/11/05 03:29:18;;;;;;;0.30;0.30;;;;;;;9.13;100.00;95293.16;4904065;29;20073;-60
2023/11/05 03:31:48;;;;;;;0.20;0.20;;;;;;;9.13;100.00;95293.16;4900343;29;20460;-60
2023/11/05 03:34:18;;;;;;;0.28;0.28;;;;;;;9.13;100.00;95293.16;4900600;29;20686;-61
2023/11/05 03:36:45;;;;;;;0.20;0.20;;;;;;;9.13;100.00;95293.16;4898680;29;20052;-60
2023/11/05 03:39:12;;;;;;;0.30;0.30;;;;;;;9.13;100.00;95293.16;4905465;29;20107;-60
2023/11/05 03:41:40;;;;;;;0.20;0.20;;;;;;;9.13;100.00;95293.16;4904695;29;20131;-60
2023/11/05 03:44:07;;;;;;;0.20;0.20;;;;;;;9.13;100.00;95293.16;4899742;29;20072;-60
2023/11/05 03:46:34;;;;;;;0.20;0.20;;;;;;;9.13;100.00;95293.16;4895427;29;20045;-60
2023/11/05 03:49:01;;;;;;;0.35;0.35;;;;;;;9.13;100.00;95293.16;4901782;29;20056;-60
2023/11/05 03:51:29;;;;;;;0.20;0.20;;;;;;;9.13;100.00;95293.16;4899351;29;20044;-60
2023/11/05 03:53:56;;;;;;;0.20;0.20;;;;;;;9.13;100.00;95293.16;4909557;29;20116;-59
2023/11/05 03:56:23;;;;;;;0.20;0.20;;;;;;;9.13;100.00;95293.16;4901105;29;20048;-57
2023/11/05 03:58:50;;;;;;;0.20;0.20;;;;;;;9.13;100.00;95293.16;4908411;29;20047;-60
2023/11/05 04:01:20;;;;;;;0.30;0.30;;;;;;;9.13;100.00;95293.16;4900451;29;20049;-60
2023/11/05 04:03:47;;;;;;;0.20;0.20;;;;;;;9.13;100.00;95293.16;4901405;29;20322;-59
2023/11/05 04:06:16;;;;;;;0.30;0.30;;;;;;;9.13;100.00;95293.16;4902289;29;20044;-58
2023/11/05 04:08:45;;;;;;;0.30;0.30;;;;;;;9.13;100.00;95293.16;4906226;29;20334;-59
2023/11/05 04:11:12;;;;;;;0.30;0.30;;;;;;;9.13;100.00;95293.16;4898717;29;20072;-58
2023/11/05 04:13:39;;;;;;;0.20;0.20;;;;;;;9.13;100.00;95293.16;4916018;29;20070;-58
2023/11/05 04:16:07;;;;;;;0.20;0.20;;;;;;;9.13;100.00;95293.16;4900556;29;20664;-59
2023/11/05 04:18:34;;;;;;;0.20;0.20;;;;;;;9.13;100.00;95293.16;4907385;29;20107;-58
2023/11/05 04:21:01;;;;;;;0.30;0.30;;;;;;;9.13;100.00;95293.16;4908568;29;20403;-58
2023/11/05 04:23:28;;;;;;;0.20;0.20;;;;;;;9.13;100.00;95293.16;4901295;29;20132;-58
2023/11/05 04:25:56;;;;;;;0.20;0.20;;;;;;;9.13;100.00;95293.16;4902713;29;20440;-58
2023/11/05 04:28:23;;;;;;;0.20;0.20;;;;;;;9.13;100.00;95293.16;4902051;29;20053;-58
2023/11/05 04:30:50;;;;;;;0.20;0.20;;;;;;;9.13;100.00;95293.16;4910261;29;20080;-59
2023/11/05 04:33:17;;;;;;;0.30;0.30;;;;;;;9.13;100.00;95293.16;4906521;29;20119;-58
2023/11/05 04:35:44;;;;;;;0.20;0.20;;;;;;;9.13;100.00;95293.16;4899961;29;20119;-58
2023/11/05 04:38:12;;;;;;;0.20;0.20;;;;;;;9.13;100.00;95293.16;4898822;29;20385;-58
2023/11/05 04:40:41;;;;;;;0.30;0.30;;;;;;;9.13;100.00;95293.16;4909892;29;20501;-58
2023/11/05 04:43:10;;;;;;;0.30;0.30;;;;;;;9.13;100.00;95293.16;4900081;29;20056;-58
2023/11/05 04:45:37;;;;;;;0.20;0.20;;;;;;;9.13;100.00;95293.16;4905635;29;20044;-58
2023/11/05 04:48:04;;;;;;;0.20;0.20;;;;;;;9.13;100.00;95293.16;4904881;29;20049;-58
2023/11/05 04:50:31;;;;;;;0.20;0.20;;;;;;;9.13;100.00;95293.16;4905289;29;20048;-59
2023/11/05 04:52:58;;;;;;;0.28;0.28;;;;;;;9.13;100.00;95293.16;4908020;29;20523;-58
2023/11/05 04:55:25;;;;;;;0.13;0.13;;;;;;;9.13;100.00;95293.16;4903962;29;20559;-58
2023/11/05 04:57:52;;;;;;;0.20;0.20;;;;;;;9.13;100.00;95293.16;4903938;29;20135;-58
2023/11/05 05:00:21;;;;;;;0.30;0.30;;;;;;;9.13;100.00;95293.16;4908334;29;20047;-58
2023/11/05 05:02:48;;;;;;;0.20;0.20;;;;;;;9.13;100.00;95293.16;4908304;29;20111;-60
2023/11/05 05:05:15;;;;;;;0.30;0.30;;;;;;;9.13;100.00;95293.16;4906173;29;20376;-60
2023/11/05 05:07:42;;;;;;;0.20;0.20;;;;;;;9.13;100.00;95293.16;4903227;29;20123;-60
2023/11/05 05:10:10;;;;;;;0.30;0.30;;;;;;;9.13;100.00;95293.16;4900835;29;20040;-60
2023/11/05 05:12:37;;;;;;;0.20;0.20;;;;;;;9.13;100.00;95293.16;4904487;29;20529;-60
2023/11/05 05:15:05;;;;;;;0.20;0.20;;;;;;;9.13;100.00;95293.16;4905006;29;20127;-59
2023/11/05 05:17:36;;;;;;;0.30;0.30;;;;;;;9.13;100.00;95293.16;4902615;29;20452;-59
2023/11/05 05:20:04;;;;;;;0.17;0.17;;;;;;;9.13;100.00;95293.16;4908066;29;20040;-59
2023/11/05 05:22:31;;;;;;;0.30;0.30;;;;;;;9.13;100.00;95293.16;4907446;29;21588;-60
2023/11/05 05:24:59;;;;;;;0.20;0.20;;;;;;;9.13;100.00;95293.16;4900862;29;20049;-59
2023/11/05 05:27:26;;;;;;;0.30;0.30;;;;;;;9.13;100.00;95293.16;4905441;29;20048;-59
2023/11/05 05:29:53;;;;;;;0.25;0.25;;;;;;;9.13;100.00;95293.16;4905664;29;20076;-59
2023/11/05 05:32:20;;;;;;;0.20;0.20;;;;;;;9.13;100.00;95293.16;4904029;29;20149;-59
2023/11/05 05:34:49;;;;;;;0.20;0.20;;;;;;;9.13;100.00;95293.16;4911894;29;20083;-59
2023/11/05 05:37:16;;;;;;;0.20;0.20;;;;;;;9.13;100.00;95293.16;4900296;29;20123;-59
2023/11/05 05:39:44;;;;;;;0.20;0.20;;;;;;;9.13;100.00;95293.16;4903894;29;20063;-59
2023/11/05 05:42:11;;;;;;;0.30;0.30;;;;;;;9.13;100.00;95293.16;4900390;29;20119;-59
2023/11/05 05:44:39;;;;;;;0.20;0.20;;;;;;;9.13;100.00;95293.16;4904284;29;20482;-59
2023/11/05 05:47:06;;;;;;;0.30;0.30;;;;;;;9.13;100.00;95293.16;4906174;29;20103;-59
2023/11/05 05:49:33;;;;;;;0.20;0.20;;;;;;;9.13;100.00;95293.16;4899346;29;20113;-59
2023/11/05 05:52:03;;;;;;;0.10;0.10;;;;;;;9.20;100.00;95113.63;4907044;29;20040;-60
2023/11/05 05:54:31;;;;;;;0.20;0.20;;;;;;;9.20;100.00;95113.63;4900664;29;20457;-60
2023/11/05 05:56:58;;;;;;;0.20;0.20;;;;;;;9.21;100.00;95124.00;4910776;29;20396;-59
2023/11/05 05:59:25;;;;;;;0.20;0.20;;;;;;;9.22;100.00;95130.13;4901118;29;20112;-60
2023/11/05 06:01:52;;;;;;;0.20;0.20;;;;;;;9.14;100.00;95125.66;4898034;29;20499;-59
2023/11/05 06:04:19;;;;;;;0.22;0.22;;;;;;;9.03;100.00;95138.66;4894440;29;20048;-59
2023/11/05 06:06:46;;;;;;;0.20;0.20;;;;;;;9.03;100.00;95138.66;4901546;29;20083;-59
2023/11/05 06:09:19;;;;;;;0.30;0.30;;;;;;;9.03;100.00;95138.66;4899759;29;20044;-59
2023/11/05 06:11:47;;;;;;;0.20;0.20;;;;;;;8.87;100.00;95141.19;4903150;29;20075;-59
2023/11/05 06:14:14;;;;;;;0.30;0.30;;;;;;;8.72;100.00;95144.50;4906738;29;20048;-59
2023/11/05 06:16:41;;;;;;;0.20;0.20;;;;;;;8.76;100.00;95154.19;4904969;29;20047;-59
2023/11/05 06:19:08;;;;;;;0.20;0.20;;;;;;;8.77;100.00;95145.06;4905877;29;20345;-59
2023/11/05 06:21:36;;;;;;;0.20;0.20;;;;;;;8.77;100.00;95145.06;4899116;29;22126;-59
2023/11/05 06:24:03;;;;;;;0.28;0.28;;;;;;;8.94;100.00;95156.69;4894623;29;20070;-60
2023/11/05 06:26:32;;;;;;;0.30;0.30;;;;;;;8.95;100.00;95156.34;4874453;29;20332;-59
2023/11/05 06:28:59;;;;;;;0.10;0.10;;;;;;;8.97;100.00;95156.00;4897042;29;20040;-59
2023/11/05 06:31:26;;;;;;;0.30;0.30;;;;;;;9.02;100.00;95161.16;4899110;29;20524;-60
2023/11/05 06:33:53;;;;;;;0.20;0.20;;;;;;;9.02;100.00;95161.16;4901353;29;20055;-59
2023/11/05 06:36:20;;;;;;;0.30;0.30;;;;;;;9.03;100.00;95147.44;4901094;29;20040;-59
2023/11/05 06:38:47;;;;;;;0.30;0.30;;;;;;;9.03;100.00;95147.44;4905841;29;20105;-59
2023/11/05 06:41:15;;;;;;;0.40;0.40;;;;;;;9.03;100.00;95147.44;4903732;29;20134;-60
2023/11/05 06:43:44;;;;;;;0.20;0.20;;;;;;;9.03;100.00;95147.44;4904026;29;20068;-59
2023/11/05 06:46:11;;;;;;;0.20;0.20;;;;;;;9.03;100.00;95147.44;4902262;29;20055;-60
2023/11/05 06:48:38;;;;;;;0.25;0.25;;;;;;;9.03;100.00;95147.44;4906363;29;20115;-59
2023/11/05 06:51:06;;;;;;;0.30;0.30;;;;;;;9.03;100.00;95147.44;4902646;29;20139;-59
2023/11/05 06:53:33;;;;;;;0.20;0.20;;;;;;;9.03;100.00;95147.44;4905788;29;20095;-59
2023/11/05 06:56:00;;;;;;;0.30;0.30;;;;;;;9.03;100.00;95147.44;4905666;29;20079;-59
2023/11/05 06:58:27;;;;;;;0.30;0.30;;;;;;;9.03;100.00;95147.44;4901333;29;20062;-60
2023/11/05 07:00:56;;;;;;;0.20;0.20;;;;;;;9.03;100.00;95147.44;4907443;29;20270;-62
2023/11/05 07:03:24;;;;;;;0.15;0.15;;;;;;;9.03;100.00;95147.44;4902990;29;20147;-60
2023/11/05 07:05:52;;;;;;;0.20;0.20;;;;;;;9.03;100.00;95147.44;4903343;29;20051;-60
2023/11/05 07:08:20;;;;;;;0.20;0.20;;;;;;;9.03;100.00;95147.44;4892890;29;20056;-59
2023/11/05 07:10:48;;;;;;;0.25;0.25;;;;;;;9.03;100.00;95147.44;4905267;29;20048;-59
2023/11/05 07:13:16;;;;;;;0.20;0.20;;;;;;;9.03;100.00;95147.44;4907934;29;20062;-59
2023/11/05 07:15:44;;;;;;;0.30;0.30;;;;;;;9.03;100.00;95147.44;4901955;29;20044;-58
2023/11/05 07:18:13;;;;;;;0.30;0.30;;;;;;;9.03;100.00;95147.44;4904239;29;20561;-58
2023/11/05 07:20:40;;;;;;;0.25;0.25;;;;;;;9.03;100.00;95147.44;4895577;29;20092;-58
2023/11/05 07:23:07;;;;;;;0.20;0.20;;;;;;;9.03;100.00;95147.44;4910046;29;20077;-60
2023/11/05 07:25:34;;;;;;;0.20;0.20;;;;;;;9.03;100.00;95147.44;4901624;29;20068;-59
2023/11/05 07:28:03;;;;;;;0.20;0.20;;;;;;;9.03;100.00;95147.44;4905199;29;20566;-59
2023/11/05 07:30:30;;;;;;;0.20;0.20;;;;;;;9.03;100.00;95147.44;4904231;29;20040;-60
2023/11/05 07:32:57;;;;;;;0.20;0.20;;;;;;;9.03;100.00;95147.44;4910604;29;20666;-60
2023/11/05 07:35:26;;;;;;;0.30;0.30;;;;;;;9.03;100.00;95147.44;4910334;29;20048;-60
2023/11/05 07:37:54;;;;;;;0.20;0.20;;;;;;;9.03;100.00;95147.44;4900525;29;20053;-60
2023/11/05 07:40:21;;;;;;;0.28;0.28;;;;;;;9.03;100.00;95147.44;4907033;29;20071;-60
2023/11/05 07:42:48;;;;;;;0.20;0.20;;;;;;;9.03;100.00;95147.44;4910946;29;20091;-60
2023/11/05 07:45:15;;;;;;;0.30;0.30;;;;;;;9.03;100.00;95147.44;4904430;29;20044;-59
2023/11/05 07:47:43;;;;;;;0.30;0.30;;;;;;;9.03;100.00;95147.44;4909663;29;20499;-59
2023/11/05 07:50:11;;;;;;;0.20;0.20;;;;;;;9.03;100.00;95147.44;4903830;29;20048;-60
2023/11/05 07:52:40;;;;;;;0.20;0.20;;;;;;;9.03;100.00;95147.44;4908181;29;20075;-59
2023/11/05 07:55:08;;;;;;;0.30;0.30;;;;;;;9.03;100.00;95147.44;4904777;29;20056;-60
2023/11/05 07:57:36;;;;;;;0.30;0.30;;;;;;;9.03;100.00;95147.44;4900396;29;20135;-60
2023/11/05 08:00:04;;;;;;;0.20;0.20;;;;;;;9.03;100.00;95147.44;4906521;29;20044;-59
2023/11/05 08:02:39;;;;;;;0.20;0.20;;;;;;;9.03;100.00;95147.44;4906651;29;20048;-59
2023/11/05 08:05:06;;;;;;;0.30;0.30;;;;;;;9.03;100.00;95147.44;4905438;29;20048;-60
2023/11/05 08:07:36;;;;;;;0.25;0.25;;;;;;;9.03;100.00;95147.44;4904708;29;20037;-60
2023/11/05 08:10:07;;;;;;;0.20;0.20;;;;;;;9.03;100.00;95147.44;4901613;29;20125;-59
2023/11/05 08:12:34;;;;;;;0.20;0.20;;;;;;;9.03;100.00;95147.44;4901171;29;20041;-60
2023/11/05 08:15:01;;;;;;;0.20;0.20;;;;;;;9.03;100.00;95147.44;4904368;29;20052;-61
2023/11/05 08:17:29;;;;;;;0.20;0.20;;;;;;;9.03;100.00;95147.44;4907805;29;20051;-59
2023/11/05 08:19:56;;;;;;;0.20;0.20;;;;;;;9.03;100.00;95147.44;4904259;29;20080;-59
2023/11/05 08:22:23;;;;;;;0.20;0.20;;;;;;;9.03;100.00;95147.44;4900734;29;20136;-59
2023/11/05 08:24:51;;;;;;;0.20;0.20;;;;;;;9.03;100.00;95147.44;4906498;29;20563;-59
2023/11/05 08:27:22;;;;;;;0.22;0.22;;;;;;;9.03;100.00;95147.44;4905018;29;20068;-59
2023/11/05 08:29:49;;;;;;;0.30;0.30;;;;;;;9.03;100.00;95147.44;4907934;29;20110;-59
2023/11/05 08:32:20;;;;;;;0.20;0.20;;;;;;;9.03;100.00;95147.44;4904674;29;20055;-59
2023/11/05 08:34:47;;;;;;;0.30;0.30;;;;;;;9.03;100.00;95147.44;4911137;29;20048;-60
2023/11/05 08:37:14;;;;;;;0.30;0.30;;;;;;;9.03;100.00;95147.44;4910779;29;20084;-59
2023/11/05 08:39:41;;;;;;;0.20;0.20;;;;;;;9.03;100.00;95147.44;4902530;29;20495;-59
2023/11/05 08:42:09;;;;;;;0.20;0.20;;;;;;;9.03;100.00;95147.44;4902316;29;20052;-59
2023/11/05 08:44:39;;;;;;;0.20;0.20;;;;;;;9.03;100.00;95147.44;4909807;29;20058;-59
2023/11/05 08:47:06;;;;;;;0.25;0.25;;;;;;;9.03;100.00;95147.44;4907112;29;20116;-59
2023/11/05 08:49:35;;;;;;;0.20;0.20;;;;;;;9.03;100.00;95147.44;4908813;29;20174;-59
2023/11/05 08:52:04;;;;;;;0.30;0.30;;;;;;;9.03;100.00;95147.44;4905271;29;20051;-59
2023/11/05 08:54:33;;;;;;;0.10;0.10;;;;;;;9.03;100.00;95147.44;4905778;29;20040;-59
2023/11/05 08:57:00;;;;;;;0.20;0.20;;;;;;;107.81;100.00;95147.44;4903285;29;20076;-59
2023/11/05 08:59:27;;;;;;;0.20;0.20;;;;;;;9.03;100.00;95147.44;4902613;29;20068;-59
2023/11/05 09:01:56;;;;;;;0.22;0.22;;;;;;;9.03;100.00;95147.44;4910471;29;20093;-59
2023/11/05 09:04:23;;;;;;;0.20;0.20;;;;;;;9.03;100.00;95147.44;4907295;29;20051;-59
2023/11/05 09:06:53;;;;;;;0.20;0.20;;;;;;;9.03;100.00;95147.44;4903045;29;20135;-59
2023/11/05 09:09:22;;;;;;;0.30;0.30;;;;;;;9.03;100.00;95147.44;4902006;29;20135;-59
2023/11/05 09:11:49;;;;;;;0.20;0.20;;;;;;;9.03;100.00;95147.44;4909351;29;20044;-59
2023/11/05 09:14:16;;;;;;;0.20;0.20;;;;;;;9.03;100.00;95147.44;4905493;29;20099;-59
2023/11/05 09:16:45;;;;;;;0.20;0.20;;;;;;;9.03;100.00;95147.44;4901842;29;20138;-59
2023/11/05 09:19:13;;;;;;;0.20;0.20;;;;;;;-145.01;100.00;73597.63;4900080;29;20495;-59
2023/11/05 09:21:43;;;;;;;0.10;0.10;;;;;;;9.03;100.00;95147.44;4908292;29;20462;-59
2023/11/05 09:24:10;;;;;;;0.20;0.20;;;;;;;9.03;100.00;95147.44;4904757;29;20072;-59
2023/11/05 09:26:38;;;;;;;0.10;0.10;;;;;;;9.03;100.00;95147.44;4901626;29;20044;-59
2023/11/05 09:29:05;;;;;;;0.10;0.10;;;;;;;9.03;100.00;95147.44;4904032;29;20043;-59
2023/11/05 09:31:32;;;;;;;0.20;0.20;;;;;;;9.03;100.00;95147.44;4903096;29;20044;-59
2023/11/05 09:33:59;;;;;;;0.20;0.20;;;;;;;9.03;100.00;95147.44;4903514;29;20051;-59
2023/11/05 09:36:28;;;;;;;0.20;0.20;;;;;;;-145.01;100.00;95147.44;4902886;29;20056;-59
2023/11/05 09:38:56;;;;;;;0.20;0.20;;;;;;;9.03;100.00;95147.44;4904818;29;20070;-59
2023/11/05 09:41:23;;;;;;;0.20;0.20;;;;;;;9.03;100.00;95147.44;4909109;29;20574;-59
2023/11/05 09:43:50;;;;;;;0.20;0.20;;;;;;;9.03;100.00;95147.44;4906234;29;20064;-59
2023/11/05 09:46:18;;;;;;;0.20;0.20;;;;;;;9.03;100.00;95147.44;4903459;29;20067;-59
2023/11/05 09:48:45;;;;;;;0.10;0.10;;;;;;;9.03;100.00;95147.44;4900094;29;20142;-59
2023/11/05 09:51:12;;;;;;;0.20;0.20;;;;;;;9.03;100.00;95147.44;4899864;29;20051;-59
2023/11/05 09:53:40;;;;;;;0.10;0.10;;;;;;;9.03;100.00;95147.44;4908462;29;20447;-59
2023/11/05 09:56:08;;;;;;;0.20;0.20;;;;;;;9.03;100.00;95147.44;4902930;29;20063;-59
2023/11/05 09:58:35;;;;;;;0.15;0.15;;;;;;;9.03;100.00;95147.44;4895243;29;20037;-59
2023/11/05 10:01:05;;;;;;;0.20;0.20;;;;;;;9.03;100.00;95147.44;4904577;29;20044;-59
2023/11/05 10:03:32;;;;;;;0.10;0.10;;;;;;;9.03;100.00;95147.44;4907332;29;20119;-59
2023/11/05 10:05:59;;;;;;;0.20;0.20;;;;;;;9.03;100.00;95147.44;4906894;29;20059;-59
2023/11/05 10:08:26;;;;;;;0.10;0.10;;;;;;;9.03;100.00;95147.44;4900511;29;20047;-59
2023/11/05 10:10:57;;;;;;;0.20;0.20;;;;;;;-145.01;100.00;64805.59;4898698;29;20856;-59
2023/11/05 10:13:26;;;;;;;0.20;0.20;;;;;;;-145.01;100.00;64805.59;4902794;29;20099;-59
2023/11/05 10:15:53;;;;;;;0.20;0.20;;;;;;;-145.01;100.00;64805.59;4907117;29;20396;-59
2023/11/05 10:18:21;;;;;;;0.10;0.10;;;;;;;-145.01;100.00;64805.59;4912797;29;20048;-59
2023/11/05 10:20:49;;;;;;;0.22;0.22;;;;;;;-145.01;100.00;64805.59;4896591;29;20344;-59
2023/11/05 10:23:16;;;;;;;0.17;0.17;;;;;;;-145.01;100.00;64805.59;4903063;29;20270;-59
2023/11/05 10:25:44;;;;;;;0.20;0.20;;;;;;;-145.01;100.00;64805.59;4906173;29;20048;-59
2023/11/05 10:28:13;;;;;;;0.20;0.20;;;;;;;-145.01;100.00;64805.59;4901016;29;20643;-62
2023/11/05 10:30:41;;;;;;;0.20;0.20;;;;;;;-145.01;100.00;64805.59;4902598;29;20071;-59
2023/11/05 10:33:08;;;;;;;0.20;0.20;;;;;;;-145.01;100.00;64805.59;4905253;29;20075;-59
2023/11/05 10:35:35;;;;;;;0.17;0.17;;;;;;;-145.01;100.00;64805.59;4901661;29;20043;-59
2023/11/05 10:38:03;;;;;;;0.20;0.20;;;;;;;-145.01;100.00;64805.59;4904446;29;20063;-59
2023/11/05 10:40:30;;;;;;;0.20;0.20;;;;;;;-145.01;100.00;64805.59;4903799;29;20040;-59
2023/11/05 10:42:57;;;;;;;0.10;0.10;;;;;;;-145.01;100.00;64805.59;4909922;29;20102;-59
2023/11/05 10:45:26;;;;;;;0.20;0.20;;;;;;;-145.01;100.00;64805.59;4898417;29;20555;-59
2023/11/05 10:47:53;;;;;;;0.17;0.17;;;;;;;-145.01;100.00;64805.59;4905611;29;20048;-59
2023/11/05 10:50:21;;;;;;;0.20;0.20;;;;;;;-145.01;100.00;64805.59;4914622;29;20040;-59
2023/11/05 10:52:50;;;;;;;0.25;0.25;;;;;;;-145.01;100.00;64805.59;4913486;29;20052;-58
2023/11/05 10:55:17;;;;;;;0.20;0.20;;;;;;;-145.01;100.00;64805.59;4907064;29;20502;-59
2023/11/05 10:57:46;;;;;;;0.20;0.20;;;;;;;-145.01;100.00;64805.59;4912236;29;20061;-59
2023/11/05 11:00:52;;;;;;;0.20;0.20;;;;;;;-145.01;100.00;64805.59;4898492;29;20492;-59
2023/11/05 11:03:23;;;;;;;0.10;0.10;;;;;;;-145.01;100.00;64805.59;4875145;29;20529;-59
2023/11/05 11:05:57;;;;;;;0.20;0.20;;;;;;;-145.01;100.00;64805.59;4911884;29;20604;-59
2023/11/05 11:08:26;;;;;;;0.20;0.20;;;;;;;-145.01;100.00;64805.59;4910374;29;20056;-59
2023/11/05 11:11:09;;;;;;;0.20;0.20;;;;;;;-145.01;100.00;64805.59;4903346;29;20050;-59
2023/11/05 11:13:39;;;;;;;0.20;0.20;;;;;;;-145.01;100.00;64805.59;4906213;29;20495;-59
2023/11/05 11:16:08;;;;;;;0.20;0.20;;;;;;;-145.01;100.00;64805.59;4908863;29;20660;-60
2023/11/05 11:18:36;;;;;;;0.20;0.20;;;;;;;-145.01;100.00;64805.59;4905199;29;20380;-59
2023/11/05 11:21:04;;;;;;;0.20;0.20;;;;;;;-145.01;100.00;64805.59;4913778;29;20049;-59
2023/11/05 11:23:31;;;;;;;0.20;0.20;;;;;;;-145.01;100.00;64805.59;4905316;29;20056;-60
2023/11/05 11:26:01;;;;;;;0.20;0.20;;;;;;;-145.01;100.00;64805.59;4908136;29;20088;-58
2023/11/05 11:28:28;;;;;;;0.20;0.20;;;;;;;-145.01;100.00;64805.59;4907097;29;20044;-58
2023/11/05 11:30:55;;;;;;;0.20;0.20;;;;;;;-145.01;100.00;64805.59;4905313;29;20047;-58